sensor_id;sensor_type;location;lat;lon;timestamp;temperature;humidity
26537;DHT22;14204;51.262;5.488;2023-12-07T00:01:29;3.90;99.90
26537;DHT22;14204;51.262;5.488;2023-12-07T00:03:55;3.90;99.90
26537;DHT22;14204;51.262;5.488;2023-12-07T00:06:21;3.90;99.90
26537;DHT22;14204;51.262;5.488;2023-12-07T00:08:46;3.90;99.90
26537;DHT22;14204;51.262;5.488;2023-12-07T00:11:12;4.00;99.90
26537;DHT22;14204;51.262;5.488;2023-12-07T00:13:38;3.90;99.90
26537;DHT22;14204;51.262;5.488;2023-12-07T00:16:03;3.90;99.90
26537;DHT22;14204;51.262;5.488;2023-12-07T00:18:29;3.80;99.90
26537;DHT22;14204;51.262;5.488;2023-12-07T00:20:55;3.80;99.90
26537;DHT22;14204;51.262;5.488;2023-12-07T00:23:21;3.80;99.90
26537;DHT22;14204;51.262;5.488;2023-12-07T00:25:46;3.80;99.90
26537;DHT22;14204;51.262;5.488;2023-12-07T00:28:12;3.80;99.90
26537;DHT22;14204;51.262;5.488;2023-12-07T00:30:38;3.80;99.90
26537;DHT22;14204;51.262;5.488;2023-12-07T00:33:03;3.80;99.90
26537;DHT22;14204;51.262;5.488;2023-12-07T00:35:29;3.90;99.90
26537;DHT22;14204;51.262;5.488;2023-12-07T00:37:55;3.90;99.90
26537;DHT22;14204;51.262;5.488;2023-12-07T00:40:22;3.90;99.90
26537;DHT22;14204;51.262;5.488;2023-12-07T00:42:48;3.80;99.90
26537;DHT22;14204;51.262;5.488;2023-12-07T00:45:14;3.80;99.90
26537;DHT22;14204;51.262;5.488;2023-12-07T00:47:40;3.80;99.90
26537;DHT22;14204;51.262;5.488;2023-12-07T00:50:07;3.80;99.90
26537;DHT22;14204;51.262;5.488;2023-12-07T00:52:32;3.80;99.90
26537;DHT22;14204;51.262;5.488;2023-12-07T00:54:58;3.80;99.90
26537;DHT22;14204;51.262;5.488;2023-12-07T00:57:24;3.70;99.90
26537;DHT22;14204;51.262;5.488;2023-12-07T00:59:50;3.70;99.90
26537;DHT22;14204;51.262;5.488;2023-12-07T01:02:15;3.70;99.90
26537;DHT22;14204;51.262;5.488;2023-12-07T01:04:41;3.70;99.90
26537;DHT22;14204;51.262;5.488;2023-12-07T01:07:06;3.60;99.90
26537;DHT22;14204;51.262;5.488;2023-12-07T01:09:33;3.70;99.90
26537;DHT22;14204;51.262;5.488;2023-12-07T01:11:59;3.60;99.90
26537;DHT22;14204;51.262;5.488;2023-12-07T01:14:25;3.60;99.90
26537;DHT22;14204;51.262;5.488;2023-12-07T01:16:50;3.60;99.90
26537;DHT22;14204;51.262;5.488;2023-12-07T01:19:16;3.60;99.90
26537;DHT22;14204;51.262;5.488;2023-12-07T01:21:42;3.60;99.90
26537;DHT22;14204;51.262;5.488;2023-12-07T01:24:09;3.60;99.90
26537;DHT22;14204;51.262;5.488;2023-12-07T01:26:35;3.60;99.90
26537;DHT22;14204;51.262;5.488;2023-12-07T01:29:01;3.60;99.90
26537;DHT22;14204;51.262;5.488;2023-12-07T01:31:27;3.50;99.90
26537;DHT22;14204;51.262;5.488;2023-12-07T01:33:52;3.50;99.90
26537;DHT22;14204;51.262;5.488;2023-12-07T01:36:18;3.50;99.90
26537;DHT22;14204;51.262;5.488;2023-12-07T01:38:44;3.50;99.90
26537;DHT22;14204;51.262;5.488;2023-12-07T01:41:10;3.40;99.90
26537;DHT22;14204;51.262;5.488;2023-12-07T01:43:35;3.40;99.90
26537;DHT22;14204;51.262;5.488;2023-12-07T01:46:01;3.50;99.90
26537;DHT22;14204;51.262;5.488;2023-12-07T01:48:28;3.50;99.90
26537;DHT22;14204;51.262;5.488;2023-12-07T01:50:56;3.30;99.90
26537;DHT22;14204;51.262;5.488;2023-12-07T01:53:23;3.30;99.90
26537;DHT22;14204;51.262;5.488;2023-12-07T01:55:51;3.40;99.90
26537;DHT22;14204;51.262;5.488;2023-12-07T01:58:18;3.30;99.90
26537;DHT22;14204;51.262;5.488;2023-12-07T02:00:45;3.40;99.90
26537;DHT22;14204;51.262;5.488;2023-12-07T02:03:11;3.40;99.90
26537;DHT22;14204;51.262;5.488;2023-12-07T02:05:40;3.50;99.90
26537;DHT22;14204;51.262;5.488;2023-12-07T02:08:06;3.50;99.90
26537;DHT22;14204;51.262;5.488;2023-12-07T02:10:32;3.40;99.90
26537;DHT22;14204;51.262;5.488;2023-12-07T02:12:57;3.40;99.90
26537;DHT22;14204;51.262;5.488;2023-12-07T02:15:23;3.40;99.90
26537;DHT22;14204;51.262;5.488;2023-12-07T02:17:52;3.40;99.90
26537;DHT22;14204;51.262;5.488;2023-12-07T02:20:29;3.50;99.90
26537;DHT22;14204;51.262;5.488;2023-12-07T02:23:00;3.40;99.90
26537;DHT22;14204;51.262;5.488;2023-12-07T02:25:44;3.40;99.90
26537;DHT22;14204;51.262;5.488;2023-12-07T02:28:19;3.40;99.90
26537;DHT22;14204;51.262;5.488;2023-12-07T02:30:44;3.30;99.90
26537;DHT22;14204;51.262;5.488;2023-12-07T02:33:11;3.20;99.90
26537;DHT22;14204;51.262;5.488;2023-12-07T02:35:38;3.30;99.90
26537;DHT22;14204;51.262;5.488;2023-12-07T02:38:06;3.30;99.90
26537;DHT22;14204;51.262;5.488;2023-12-07T02:40:33;3.40;99.90
26537;DHT22;14204;51.262;5.488;2023-12-07T02:43:00;3.50;99.90
26537;DHT22;14204;51.262;5.488;2023-12-07T02:45:27;3.50;99.90
26537;DHT22;14204;51.262;5.488;2023-12-07T02:47:53;3.50;99.90
26537;DHT22;14204;51.262;5.488;2023-12-07T02:50:19;3.50;99.90
26537;DHT22;14204;51.262;5.488;2023-12-07T02:52:45;3.40;99.90
26537;DHT22;14204;51.262;5.488;2023-12-07T02:55:11;3.30;99.90
26537;DHT22;14204;51.262;5.488;2023-12-07T02:57:37;3.30;99.90
26537;DHT22;14204;51.262;5.488;2023-12-07T03:00:04;3.40;99.90
26537;DHT22;14204;51.262;5.488;2023-12-07T03:02:36;3.40;99.90
26537;DHT22;14204;51.262;5.488;2023-12-07T03:05:03;3.30;99.90
26537;DHT22;14204;51.262;5.488;2023-12-07T03:07:29;3.40;99.90
26537;DHT22;14204;51.262;5.488;2023-12-07T03:09:55;3.40;99.90
26537;DHT22;14204;51.262;5.488;2023-12-07T03:12:20;3.50;99.90
26537;DHT22;14204;51.262;5.488;2023-12-07T03:14:46;3.50;99.90
26537;DHT22;14204;51.262;5.488;2023-12-07T03:17:12;3.40;99.90
26537;DHT22;14204;51.262;5.488;2023-12-07T03:19:39;3.40;99.90
26537;DHT22;14204;51.262;5.488;2023-12-07T03:22:05;3.40;99.90
26537;DHT22;14204;51.262;5.488;2023-12-07T03:24:33;3.50;99.90
26537;DHT22;14204;51.262;5.488;2023-12-07T03:26:59;3.60;99.90
26537;DHT22;14204;51.262;5.488;2023-12-07T03:29:25;3.60;99.90
26537;DHT22;14204;51.262;5.488;2023-12-07T03:31:50;3.60;99.90
26537;DHT22;14204;51.262;5.488;2023-12-07T03:34:16;3.60;99.90
26537;DHT22;14204;51.262;5.488;2023-12-07T03:36:50;3.50;99.90
26537;DHT22;14204;51.262;5.488;2023-12-07T03:39:17;3.60;99.90
26537;DHT22;14204;51.262;5.488;2023-12-07T03:41:44;3.50;99.90
26537;DHT22;14204;51.262;5.488;2023-12-07T03:44:10;3.50;99.90
26537;DHT22;14204;51.262;5.488;2023-12-07T03:46:36;3.40;99.90
26537;DHT22;14204;51.262;5.488;2023-12-07T03:49:01;3.50;99.90
26537;DHT22;14204;51.262;5.488;2023-12-07T03:51:27;3.50;99.90
26537;DHT22;14204;51.262;5.488;2023-12-07T03:53:54;3.50;99.90
26537;DHT22;14204;51.262;5.488;2023-12-07T03:56:38;3.60;99.90
26537;DHT22;14204;51.262;5.488;2023-12-07T03:59:06;3.70;99.90
26537;DHT22;14204;51.262;5.488;2023-12-07T04:01:31;3.60;99.90
26537;DHT22;14204;51.262;5.488;2023-12-07T04:03:58;3.70;99.90
26537;DHT22;14204;51.262;5.488;2023-12-07T04:06:24;3.80;99.90
26537;DHT22;14204;51.262;5.488;2023-12-07T04:08:50;3.70;99.90
26537;DHT22;14204;51.262;5.488;2023-12-07T04:11:16;3.70;99.90
26537;DHT22;14204;51.262;5.488;2023-12-07T04:13:42;3.70;99.90
26537;DHT22;14204;51.262;5.488;2023-12-07T04:16:09;3.70;99.90
26537;DHT22;14204;51.262;5.488;2023-12-07T04:18:35;3.70;99.90
26537;DHT22;14204;51.262;5.488;2023-12-07T04:21:01;3.80;99.90
26537;DHT22;14204;51.262;5.488;2023-12-07T04:23:28;3.80;99.90
26537;DHT22;14204;51.262;5.488;2023-12-07T04:25:53;3.90;99.90
26537;DHT22;14204;51.262;5.488;2023-12-07T04:28:19;3.90;99.90
26537;DHT22;14204;51.262;5.488;2023-12-07T04:30:45;3.90;99.90
26537;DHT22;14204;51.262;5.488;2023-12-07T04:33:11;3.90;99.90
26537;DHT22;14204;51.262;5.488;2023-12-07T04:35:37;4.00;99.90
26537;DHT22;14204;51.262;5.488;2023-12-07T04:38:02;3.90;99.90
26537;DHT22;14204;51.262;5.488;2023-12-07T04:40:29;4.00;99.90
26537;DHT22;14204;51.262;5.488;2023-12-07T04:42:55;4.00;99.90
26537;DHT22;14204;51.262;5.488;2023-12-07T04:45:20;4.00;99.90
26537;DHT22;14204;51.262;5.488;2023-12-07T04:47:46;4.00;99.90
26537;DHT22;14204;51.262;5.488;2023-12-07T04:50:12;4.00;99.90
26537;DHT22;14204;51.262;5.488;2023-12-07T04:52:38;3.90;99.90
26537;DHT22;14204;51.262;5.488;2023-12-07T04:55:05;3.90;99.90
26537;DHT22;14204;51.262;5.488;2023-12-07T04:57:33;3.90;99.90
26537;DHT22;14204;51.262;5.488;2023-12-07T04:59:59;3.90;99.90
26537;DHT22;14204;51.262;5.488;2023-12-07T05:02:24;3.80;99.90
26537;DHT22;14204;51.262;5.488;2023-12-07T05:04:50;3.90;99.90
26537;DHT22;14204;51.262;5.488;2023-12-07T05:07:16;3.80;99.90
26537;DHT22;14204;51.262;5.488;2023-12-07T05:09:42;3.70;99.90
26537;DHT22;14204;51.262;5.488;2023-12-07T05:12:08;3.80;99.90
26537;DHT22;14204;51.262;5.488;2023-12-07T05:14:34;3.80;99.90
26537;DHT22;14204;51.262;5.488;2023-12-07T05:17:00;3.80;99.90
26537;DHT22;14204;51.262;5.488;2023-12-07T05:19:26;3.60;99.90
26537;DHT22;14204;51.262;5.488;2023-12-07T05:21:52;3.50;99.90
26537;DHT22;14204;51.262;5.488;2023-12-07T05:24:18;3.50;99.90
26537;DHT22;14204;51.262;5.488;2023-12-07T05:26:44;3.60;99.90
26537;DHT22;14204;51.262;5.488;2023-12-07T05:29:13;3.70;99.90
26537;DHT22;14204;51.262;5.488;2023-12-07T05:31:39;3.70;99.90
26537;DHT22;14204;51.262;5.488;2023-12-07T05:34:06;3.70;99.90
26537;DHT22;14204;51.262;5.488;2023-12-07T05:36:33;3.60;99.90
26537;DHT22;14204;51.262;5.488;2023-12-07T05:38:59;3.60;99.90
26537;DHT22;14204;51.262;5.488;2023-12-07T05:41:25;3.70;99.90
26537;DHT22;14204;51.262;5.488;2023-12-07T05:43:54;3.80;99.90
26537;DHT22;14204;51.262;5.488;2023-12-07T05:46:20;3.90;99.90
26537;DHT22;14204;51.262;5.488;2023-12-07T05:48:46;3.80;99.90
26537;DHT22;14204;51.262;5.488;2023-12-07T05:51:16;3.80;99.90
26537;DHT22;14204;51.262;5.488;2023-12-07T05:53:42;3.80;99.90
26537;DHT22;14204;51.262;5.488;2023-12-07T05:56:09;3.80;99.90
26537;DHT22;14204;51.262;5.488;2023-12-07T05:58:34;3.80;99.90
26537;DHT22;14204;51.262;5.488;2023-12-07T06:01:00;3.80;99.90
26537;DHT22;14204;51.262;5.488;2023-12-07T06:03:28;3.80;99.90
26537;DHT22;14204;51.262;5.488;2023-12-07T06:05:53;3.80;99.90
26537;DHT22;14204;51.262;5.488;2023-12-07T06:08:19;3.70;99.90
26537;DHT22;14204;51.262;5.488;2023-12-07T06:10:45;3.70;99.90
26537;DHT22;14204;51.262;5.488;2023-12-07T06:13:12;3.80;99.90
26537;DHT22;14204;51.262;5.488;2023-12-07T06:15:39;3.80;99.90
26537;DHT22;14204;51.262;5.488;2023-12-07T06:18:05;3.90;99.90
26537;DHT22;14204;51.262;5.488;2023-12-07T06:20:31;3.90;99.90
26537;DHT22;14204;51.262;5.488;2023-12-07T06:22:57;3.90;99.90
26537;DHT22;14204;51.262;5.488;2023-12-07T06:25:23;3.90;99.90
26537;DHT22;14204;51.262;5.488;2023-12-07T06:27:49;4.00;99.90
26537;DHT22;14204;51.262;5.488;2023-12-07T06:30:15;3.90;99.90
26537;DHT22;14204;51.262;5.488;2023-12-07T06:32:40;3.90;99.90
26537;DHT22;14204;51.262;5.488;2023-12-07T06:35:06;4.00;99.90
26537;DHT22;14204;51.262;5.488;2023-12-07T06:37:33;3.90;99.90
26537;DHT22;14204;51.262;5.488;2023-12-07T06:39:58;3.90;99.90
26537;DHT22;14204;51.262;5.488;2023-12-07T06:42:26;3.90;99.90
26537;DHT22;14204;51.262;5.488;2023-12-07T06:44:51;3.80;99.90
26537;DHT22;14204;51.262;5.488;2023-12-07T06:47:17;3.80;99.90
26537;DHT22;14204;51.262;5.488;2023-12-07T06:49:44;3.60;99.90
26537;DHT22;14204;51.262;5.488;2023-12-07T06:52:11;3.60;99.90
26537;DHT22;14204;51.262;5.488;2023-12-07T06:54:37;3.60;99.90
26537;DHT22;14204;51.262;5.488;2023-12-07T06:57:06;3.70;99.90
26537;DHT22;14204;51.262;5.488;2023-12-07T06:59:33;3.70;99.90
26537;DHT22;14204;51.262;5.488;2023-12-07T07:01:59;3.70;99.90
26537;DHT22;14204;51.262;5.488;2023-12-07T07:04:25;3.60;99.90
26537;DHT22;14204;51.262;5.488;2023-12-07T07:06:51;3.70;99.90
26537;DHT22;14204;51.262;5.488;2023-12-07T07:09:17;3.70;99.90
26537;DHT22;14204;51.262;5.488;2023-12-07T07:11:47;3.80;99.90
26537;DHT22;14204;51.262;5.488;2023-12-07T07:14:13;3.80;99.90
26537;DHT22;14204;51.262;5.488;2023-12-07T07:16:39;3.80;99.90
26537;DHT22;14204;51.262;5.488;2023-12-07T07:19:04;3.90;99.90
26537;DHT22;14204;51.262;5.488;2023-12-07T07:21:31;3.90;99.90
26537;DHT22;14204;51.262;5.488;2023-12-07T07:23:57;4.00;99.90
26537;DHT22;14204;51.262;5.488;2023-12-07T07:26:23;4.00;99.90
26537;DHT22;14204;51.262;5.488;2023-12-07T07:28:51;4.00;99.90
26537;DHT22;14204;51.262;5.488;2023-12-07T07:31:17;4.00;99.90
26537;DHT22;14204;51.262;5.488;2023-12-07T07:33:43;4.00;99.90
26537;DHT22;14204;51.262;5.488;2023-12-07T07:36:09;4.10;99.90
26537;DHT22;14204;51.262;5.488;2023-12-07T07:38:37;4.10;99.90
26537;DHT22;14204;51.262;5.488;2023-12-07T07:41:03;4.10;99.90
26537;DHT22;14204;51.262;5.488;2023-12-07T07:43:29;4.10;99.90
26537;DHT22;14204;51.262;5.488;2023-12-07T07:45:55;4.00;99.90
26537;DHT22;14204;51.262;5.488;2023-12-07T07:48:21;3.90;99.90
26537;DHT22;14204;51.262;5.488;2023-12-07T07:50:47;3.90;99.90
26537;DHT22;14204;51.262;5.488;2023-12-07T07:53:13;3.90;99.90
26537;DHT22;14204;51.262;5.488;2023-12-07T07:55:39;3.90;99.90
26537;DHT22;14204;51.262;5.488;2023-12-07T07:58:04;3.90;99.90
26537;DHT22;14204;51.262;5.488;2023-12-07T08:00:30;4.00;99.90
26537;DHT22;14204;51.262;5.488;2023-12-07T08:02:58;4.00;99.90
26537;DHT22;14204;51.262;5.488;2023-12-07T08:05:23;3.90;99.90
26537;DHT22;14204;51.262;5.488;2023-12-07T08:07:50;4.00;99.90
26537;DHT22;14204;51.262;5.488;2023-12-07T08:10:15;4.00;99.90
26537;DHT22;14204;51.262;5.488;2023-12-07T08:12:41;4.00;99.90
26537;DHT22;14204;51.262;5.488;2023-12-07T08:15:07;4.00;99.90
26537;DHT22;14204;51.262;5.488;2023-12-07T08:17:37;4.00;99.90
26537;DHT22;14204;51.262;5.488;2023-12-07T08:20:05;4.10;99.90
26537;DHT22;14204;51.262;5.488;2023-12-07T08:22:31;4.10;99.90
26537;DHT22;14204;51.262;5.488;2023-12-07T08:24:57;4.20;99.90
26537;DHT22;14204;51.262;5.488;2023-12-07T08:27:22;4.20;99.90
26537;DHT22;14204;51.262;5.488;2023-12-07T08:29:48;4.30;99.90
26537;DHT22;14204;51.262;5.488;2023-12-07T08:32:14;4.40;99.90
26537;DHT22;14204;51.262;5.488;2023-12-07T08:34:41;4.40;99.90
26537;DHT22;14204;51.262;5.488;2023-12-07T08:37:06;4.40;99.90
26537;DHT22;14204;51.262;5.488;2023-12-07T08:39:33;4.40;99.90
26537;DHT22;14204;51.262;5.488;2023-12-07T08:41:58;4.30;99.90
26537;DHT22;14204;51.262;5.488;2023-12-07T08:44:24;4.30;99.90
26537;DHT22;14204;51.262;5.488;2023-12-07T08:46:50;4.40;99.90
26537;DHT22;14204;51.262;5.488;2023-12-07T08:49:15;4.50;99.90
26537;DHT22;14204;51.262;5.488;2023-12-07T08:51:41;4.50;99.90
26537;DHT22;14204;51.262;5.488;2023-12-07T08:54:07;4.60;99.90
26537;DHT22;14204;51.262;5.488;2023-12-07T08:56:32;4.50;99.90
26537;DHT22;14204;51.262;5.488;2023-12-07T08:58:58;4.50;99.90
26537;DHT22;14204;51.262;5.488;2023-12-07T09:01:25;4.50;99.90
26537;DHT22;14204;51.262;5.488;2023-12-07T09:03:52;4.40;99.90
26537;DHT22;14204;51.262;5.488;2023-12-07T09:06:17;4.40;99.90
26537;DHT22;14204;51.262;5.488;2023-12-07T09:08:43;4.50;99.90
26537;DHT22;14204;51.262;5.488;2023-12-07T09:11:09;4.50;99.90
26537;DHT22;14204;51.262;5.488;2023-12-07T09:13:35;4.50;99.90
26537;DHT22;14204;51.262;5.488;2023-12-07T09:16:01;4.50;99.90
26537;DHT22;14204;51.262;5.488;2023-12-07T09:18:27;4.60;99.90
26537;DHT22;14204;51.262;5.488;2023-12-07T09:20:52;4.60;99.90
26537;DHT22;14204;51.262;5.488;2023-12-07T09:23:18;4.50;99.90
26537;DHT22;14204;51.262;5.488;2023-12-07T09:25:49;4.50;99.90
26537;DHT22;14204;51.262;5.488;2023-12-07T09:28:15;4.50;99.90
26537;DHT22;14204;51.262;5.488;2023-12-07T09:30:41;4.50;99.90
26537;DHT22;14204;51.262;5.488;2023-12-07T09:33:07;4.40;99.90
26537;DHT22;14204;51.262;5.488;2023-12-07T09:35:35;4.40;99.90
26537;DHT22;14204;51.262;5.488;2023-12-07T09:38:04;4.40;99.90
26537;DHT22;14204;51.262;5.488;2023-12-07T09:40:30;4.30;99.90
26537;DHT22;14204;51.262;5.488;2023-12-07T09:42:56;4.40;99.90
26537;DHT22;14204;51.262;5.488;2023-12-07T09:45:22;4.50;99.90
26537;DHT22;14204;51.262;5.488;2023-12-07T09:47:53;4.50;99.90
26537;DHT22;14204;51.262;5.488;2023-12-07T09:50:20;4.50;99.90
26537;DHT22;14204;51.262;5.488;2023-12-07T09:52:50;4.50;99.90
26537;DHT22;14204;51.262;5.488;2023-12-07T09:55:17;4.50;99.90
26537;DHT22;14204;51.262;5.488;2023-12-07T09:57:44;4.50;99.90
26537;DHT22;14204;51.262;5.488;2023-12-07T10:00:11;4.60;99.90
26537;DHT22;14204;51.262;5.488;2023-12-07T10:02:40;4.60;99.90
26537;DHT22;14204;51.262;5.488;2023-12-07T10:05:11;4.60;99.90
26537;DHT22;14204;51.262;5.488;2023-12-07T10:07:40;4.70;99.90
26537;DHT22;14204;51.262;5.488;2023-12-07T10:10:07;4.70;99.90
26537;DHT22;14204;51.262;5.488;2023-12-07T10:12:34;4.70;99.90
26537;DHT22;14204;51.262;5.488;2023-12-07T10:15:11;4.80;99.90
26537;DHT22;14204;51.262;5.488;2023-12-07T10:20:20;4.70;99.90
26537;DHT22;14204;51.262;5.488;2023-12-07T10:23:18;4.70;99.90
26537;DHT22;14204;51.262;5.488;2023-12-07T10:25:44;4.80;99.90
26537;DHT22;14204;51.262;5.488;2023-12-07T10:28:10;4.80;99.90
26537;DHT22;14204;51.262;5.488;2023-12-07T10:30:40;4.90;99.90
26537;DHT22;14204;51.262;5.488;2023-12-07T10:33:07;5.00;99.90
26537;DHT22;14204;51.262;5.488;2023-12-07T10:35:33;5.00;99.90
26537;DHT22;14204;51.262;5.488;2023-12-07T10:37:59;5.00;99.90
26537;DHT22;14204;51.262;5.488;2023-12-07T10:40:25;4.90;99.90
26537;DHT22;14204;51.262;5.488;2023-12-07T10:42:56;5.10;99.90
26537;DHT22;14204;51.262;5.488;2023-12-07T10:45:24;5.10;99.90
26537;DHT22;14204;51.262;5.488;2023-12-07T10:47:51;5.10;99.90
26537;DHT22;14204;51.262;5.488;2023-12-07T10:50:22;5.10;99.90
26537;DHT22;14204;51.262;5.488;2023-12-07T10:52:52;5.20;99.90
26537;DHT22;14204;51.262;5.488;2023-12-07T10:55:28;5.10;99.90
26537;DHT22;14204;51.262;5.488;2023-12-07T10:57:55;5.10;99.90
26537;DHT22;14204;51.262;5.488;2023-12-07T11:00:22;5.00;99.90
26537;DHT22;14204;51.262;5.488;2023-12-07T11:02:53;4.90;99.90
26537;DHT22;14204;51.262;5.488;2023-12-07T11:05:19;5.00;99.90
26537;DHT22;14204;51.262;5.488;2023-12-07T11:07:55;5.10;99.90
26537;DHT22;14204;51.262;5.488;2023-12-07T11:11:00;5.00;99.90
26537;DHT22;14204;51.262;5.488;2023-12-07T11:13:29;5.10;99.90
26537;DHT22;14204;51.262;5.488;2023-12-07T11:15:57;5.20;99.90
26537;DHT22;14204;51.262;5.488;2023-12-07T11:18:28;5.30;99.90
26537;DHT22;14204;51.262;5.488;2023-12-07T11:20:55;5.30;99.90
26537;DHT22;14204;51.262;5.488;2023-12-07T11:23:21;5.20;99.90
26537;DHT22;14204;51.262;5.488;2023-12-07T11:25:48;5.30;99.90
26537;DHT22;14204;51.262;5.488;2023-12-07T11:28:16;5.30;99.90
26537;DHT22;14204;51.262;5.488;2023-12-07T11:30:44;5.40;99.90
26537;DHT22;14204;51.262;5.488;2023-12-07T11:33:10;5.30;99.90
26537;DHT22;14204;51.262;5.488;2023-12-07T11:38:27;5.30;99.90
26537;DHT22;14204;51.262;5.488;2023-12-07T11:40:54;5.30;99.90
26537;DHT22;14204;51.262;5.488;2023-12-07T11:45:58;5.40;99.90
26537;DHT22;14204;51.262;5.488;2023-12-07T11:48:23;5.50;99.90
26537;DHT22;14204;51.262;5.488;2023-12-07T11:51:06;5.50;99.90
26537;DHT22;14204;51.262;5.488;2023-12-07T11:53:36;5.50;99.90
26537;DHT22;14204;51.262;5.488;2023-12-07T11:56:07;5.50;99.90
26537;DHT22;14204;51.262;5.488;2023-12-07T11:58:34;5.40;99.90
26537;DHT22;14204;51.262;5.488;2023-12-07T12:01:01;5.50;99.90
26537;DHT22;14204;51.262;5.488;2023-12-07T12:03:28;5.60;99.90
26537;DHT22;14204;51.262;5.488;2023-12-07T12:05:55;5.60;99.90
26537;DHT22;14204;51.262;5.488;2023-12-07T12:08:21;5.70;99.90
26537;DHT22;14204;51.262;5.488;2023-12-07T12:10:49;5.70;99.90
26537;DHT22;14204;51.262;5.488;2023-12-07T12:13:15;5.80;99.90
26537;DHT22;14204;51.262;5.488;2023-12-07T12:15:41;5.80;99.90
26537;DHT22;14204;51.262;5.488;2023-12-07T12:18:08;5.90;99.90
26537;DHT22;14204;51.262;5.488;2023-12-07T12:20:34;5.80;99.90
26537;DHT22;14204;51.262;5.488;2023-12-07T12:23:00;5.90;99.90
26537;DHT22;14204;51.262;5.488;2023-12-07T12:25:27;5.90;99.90
26537;DHT22;14204;51.262;5.488;2023-12-07T12:27:58;5.90;99.90
26537;DHT22;14204;51.262;5.488;2023-12-07T12:30:24;6.00;99.90
26537;DHT22;14204;51.262;5.488;2023-12-07T12:32:51;5.90;99.90
26537;DHT22;14204;51.262;5.488;2023-12-07T12:35:17;6.00;99.90
26537;DHT22;14204;51.262;5.488;2023-12-07T12:37:44;6.10;99.90
26537;DHT22;14204;51.262;5.488;2023-12-07T12:40:12;6.00;99.90
26537;DHT22;14204;51.262;5.488;2023-12-07T12:42:42;6.00;99.90
26537;DHT22;14204;51.262;5.488;2023-12-07T12:45:09;6.00;99.90
26537;DHT22;14204;51.262;5.488;2023-12-07T12:47:36;6.10;99.90
26537;DHT22;14204;51.262;5.488;2023-12-07T12:50:02;6.20;99.90
26537;DHT22;14204;51.262;5.488;2023-12-07T12:52:32;6.10;99.90
26537;DHT22;14204;51.262;5.488;2023-12-07T12:54:58;6.10;99.90
26537;DHT22;14204;51.262;5.488;2023-12-07T12:57:23;6.10;99.90
26537;DHT22;14204;51.262;5.488;2023-12-07T12:59:52;6.20;99.90
26537;DHT22;14204;51.262;5.488;2023-12-07T13:02:20;6.20;99.90
26537;DHT22;14204;51.262;5.488;2023-12-07T13:04:46;6.10;99.90
26537;DHT22;14204;51.262;5.488;2023-12-07T13:07:12;6.10;99.90
26537;DHT22;14204;51.262;5.488;2023-12-07T13:09:39;6.00;99.90
26537;DHT22;14204;51.262;5.488;2023-12-07T13:12:05;6.00;99.90
26537;DHT22;14204;51.262;5.488;2023-12-07T13:14:31;6.10;99.90
26537;DHT22;14204;51.262;5.488;2023-12-07T13:17:01;6.10;99.90
26537;DHT22;14204;51.262;5.488;2023-12-07T13:19:27;6.10;99.90
26537;DHT22;14204;51.262;5.488;2023-12-07T13:21:52;6.10;99.90
26537;DHT22;14204;51.262;5.488;2023-12-07T13:24:18;6.00;99.90
26537;DHT22;14204;51.262;5.488;2023-12-07T13:26:44;6.10;99.90
26537;DHT22;14204;51.262;5.488;2023-12-07T13:29:10;6.10;99.90
26537;DHT22;14204;51.262;5.488;2023-12-07T13:31:36;6.10;99.90
26537;DHT22;14204;51.262;5.488;2023-12-07T13:34:01;6.10;99.90
26537;DHT22;14204;51.262;5.488;2023-12-07T13:36:27;6.10;99.90
26537;DHT22;14204;51.262;5.488;2023-12-07T13:38:55;6.10;99.90
26537;DHT22;14204;51.262;5.488;2023-12-07T13:41:21;6.10;99.90
26537;DHT22;14204;51.262;5.488;2023-12-07T13:43:48;6.10;99.90
26537;DHT22;14204;51.262;5.488;2023-12-07T13:46:19;6.00;99.90
26537;DHT22;14204;51.262;5.488;2023-12-07T13:48:45;6.00;99.90
26537;DHT22;14204;51.262;5.488;2023-12-07T13:51:11;6.00;99.90
26537;DHT22;14204;51.262;5.488;2023-12-07T13:53:36;6.00;99.90
26537;DHT22;14204;51.262;5.488;2023-12-07T13:56:03;5.90;99.90
26537;DHT22;14204;51.262;5.488;2023-12-07T13:58:30;5.90;99.90
26537;DHT22;14204;51.262;5.488;2023-12-07T14:00:56;5.90;99.90
26537;DHT22;14204;51.262;5.488;2023-12-07T14:03:21;6.00;99.90
26537;DHT22;14204;51.262;5.488;2023-12-07T14:05:48;6.00;99.90
26537;DHT22;14204;51.262;5.488;2023-12-07T14:08:14;5.90;99.90
26537;DHT22;14204;51.262;5.488;2023-12-07T14:10:40;5.90;99.90
26537;DHT22;14204;51.262;5.488;2023-12-07T14:13:06;5.80;99.90
26537;DHT22;14204;51.262;5.488;2023-12-07T14:15:31;5.80;99.90
26537;DHT22;14204;51.262;5.488;2023-12-07T14:18:01;5.80;99.90
26537;DHT22;14204;51.262;5.488;2023-12-07T14:20:30;5.70;99.90
26537;DHT22;14204;51.262;5.488;2023-12-07T14:22:56;5.70;99.90
26537;DHT22;14204;51.262;5.488;2023-12-07T14:25:23;5.80;99.90
26537;DHT22;14204;51.262;5.488;2023-12-07T14:27:48;5.70;99.90
26537;DHT22;14204;51.262;5.488;2023-12-07T14:30:14;5.70;99.90
26537;DHT22;14204;51.262;5.488;2023-12-07T14:32:42;5.70;99.90
26537;DHT22;14204;51.262;5.488;2023-12-07T14:35:14;5.60;99.90
26537;DHT22;14204;51.262;5.488;2023-12-07T14:37:39;5.70;99.90
26537;DHT22;14204;51.262;5.488;2023-12-07T14:40:07;5.70;99.90
26537;DHT22;14204;51.262;5.488;2023-12-07T14:42:34;5.60;99.90
26537;DHT22;14204;51.262;5.488;2023-12-07T14:44:59;5.70;99.90
26537;DHT22;14204;51.262;5.488;2023-12-07T14:47:25;5.60;99.90
26537;DHT22;14204;51.262;5.488;2023-12-07T14:49:51;5.50;99.90
26537;DHT22;14204;51.262;5.488;2023-12-07T14:52:16;5.50;99.90
26537;DHT22;14204;51.262;5.488;2023-12-07T14:54:42;5.60;99.90
26537;DHT22;14204;51.262;5.488;2023-12-07T14:57:08;5.60;99.90
26537;DHT22;14204;51.262;5.488;2023-12-07T14:59:35;5.70;99.90
26537;DHT22;14204;51.262;5.488;2023-12-07T15:02:01;5.70;99.90
26537;DHT22;14204;51.262;5.488;2023-12-07T15:04:27;5.70;99.90
26537;DHT22;14204;51.262;5.488;2023-12-07T15:06:53;5.70;99.90
26537;DHT22;14204;51.262;5.488;2023-12-07T15:09:20;5.70;99.90
26537;DHT22;14204;51.262;5.488;2023-12-07T15:11:46;5.70;99.90
26537;DHT22;14204;51.262;5.488;2023-12-07T15:14:12;5.70;99.90
26537;DHT22;14204;51.262;5.488;2023-12-07T15:16:38;5.70;99.90
26537;DHT22;14204;51.262;5.488;2023-12-07T15:19:04;5.70;99.90
26537;DHT22;14204;51.262;5.488;2023-12-07T15:21:30;5.70;99.90
26537;DHT22;14204;51.262;5.488;2023-12-07T15:23:56;5.60;99.90
26537;DHT22;14204;51.262;5.488;2023-12-07T15:26:21;5.50;99.90
26537;DHT22;14204;51.262;5.488;2023-12-07T15:28:47;5.50;99.90
26537;DHT22;14204;51.262;5.488;2023-12-07T15:31:13;5.50;99.90
26537;DHT22;14204;51.262;5.488;2023-12-07T15:33:38;5.50;99.90
26537;DHT22;14204;51.262;5.488;2023-12-07T15:36:04;5.40;99.90
26537;DHT22;14204;51.262;5.488;2023-12-07T15:38:30;5.40;99.90
26537;DHT22;14204;51.262;5.488;2023-12-07T15:40:57;5.40;99.90
26537;DHT22;14204;51.262;5.488;2023-12-07T15:43:24;5.40;99.90
26537;DHT22;14204;51.262;5.488;2023-12-07T15:45:51;5.40;99.90
26537;DHT22;14204;51.262;5.488;2023-12-07T15:48:17;5.40;99.90
26537;DHT22;14204;51.262;5.488;2023-12-07T15:50:44;5.30;99.90